»·PEaware :: N695DS KWHP-KCRQ

N695DS :: KWHP-KCRQ

FLIGHT INFORMATION

Flight Status: Arrived
Operator: Privately registered:
United States
More flights under this callsign
Pilot: Christopher S. (2105)
Aircraft: Diamond DA-62
(DA62)
More flights by this aircraft type
Origin: KWHP Whiteman
United States
Destination: KCRQ McClellan-Palomar
United States
More flights between these airports :: More routes between these airports
Route: +DARTS POM PDZ V186 ROBNN V458 OCN
File this flight plan on PilotEdge
Remarks: TEC route BURP26
Altitude:
(Current/Filed)
7,000ft
Speed:
(Current/Filed)
170kts
Departed: 02-Apr-20 06:36 PM
Arrived: 02-Apr-20 07:29 PM
Distance/Time
Traveled:
88nm/0:53
Distance/Time
To Go:
Arrived

Flight Plot

Page will automatically refresh every two minutes.

Flight plan parsing failed; only flown route is shown


Map Options




Map Legend


Flown Route
Filed Route
Departure Airport
Arrival Airport
Navaid (VOR, NDB)
Fix

Horizontal Profiles

Position Reports

Time Latitude Longitude Heading Altitude Ground
Speed
02-Apr-20 18:17 34.259072 -118.412150 134 989ft 0kts
02-Apr-20 18:18 34.259073 -118.412150 134 989ft 0kts
02-Apr-20 18:19 34.259073 -118.412150 134 989ft 0kts
02-Apr-20 18:20 34.259073 -118.412150 134 989ft 0kts
02-Apr-20 18:21 34.259073 -118.412150 134 989ft 0kts
02-Apr-20 18:22 34.259073 -118.412150 134 989ft 0kts
02-Apr-20 18:23 34.259073 -118.412150 134 989ft 0kts
02-Apr-20 18:24 34.259073 -118.412150 134 989ft 0kts
02-Apr-20 18:25 34.259073 -118.412150 134 989ft 0kts
02-Apr-20 18:26 34.259073 -118.412150 134 989ft 0kts
02-Apr-20 18:27 34.259073 -118.412150 134 989ft 0kts
02-Apr-20 18:28 34.259073 -118.412150 134 989ft 0kts
02-Apr-20 18:29 34.259073 -118.412150 134 989ft 0kts
02-Apr-20 18:30 34.259073 -118.412150 134 989ft 0kts
02-Apr-20 18:31 34.259073 -118.412150 134 989ft 0kts
02-Apr-20 18:32 34.257916 -118.411350 137 983ft 13kts
02-Apr-20 18:33 34.255529 -118.408885 192 970ft 0kts
02-Apr-20 18:34 34.255529 -118.408885 192 970ft 0kts
02-Apr-20 18:35 34.256672 -118.410662 318 976ft 53kts
02-Apr-20 18:36 34.274378 -118.431429 284 1700ft 111kts
02-Apr-20 18:37 34.276054 -118.471030 274 2778ft 121kts
02-Apr-20 18:38 34.277132 -118.512298 272 3833ft 128kts
02-Apr-20 18:39 34.306649 -118.534334 343 4613ft 136kts
02-Apr-20 18:40 34.310359 -118.564260 194 5463ft 144kts
02-Apr-20 18:41 34.277724 -118.538096 142 6192ft 156kts
02-Apr-20 18:42 34.242104 -118.507671 144 6884ft 158kts
02-Apr-20 18:43 34.208821 -118.468191 104 6981ft 179kts
02-Apr-20 18:44 34.194927 -118.408793 98 6963ft 185kts
02-Apr-20 18:45 34.181556 -118.349793 109 6965ft 187kts
02-Apr-20 18:46 34.162870 -118.290919 119 6957ft 188kts
02-Apr-20 18:47 34.150141 -118.230269 97 6966ft 187kts
02-Apr-20 18:48 34.140395 -118.168366 99 7007ft 188kts
02-Apr-20 18:49 34.130916 -118.105650 101 7007ft 190kts
02-Apr-20 18:50 34.120820 -118.042785 102 7008ft 190kts
02-Apr-20 18:51 34.110511 -117.979800 102 7009ft 191kts
02-Apr-20 18:52 34.100146 -117.916837 102 7009ft 191kts
02-Apr-20 18:53 34.089696 -117.853606 102 7009ft 192kts
02-Apr-20 18:54 34.079348 -117.790202 101 7006ft 192kts
02-Apr-20 18:55 34.051450 -117.736931 134 7003ft 190kts
02-Apr-20 18:56 34.017484 -117.687358 130 6999ft 191kts
02-Apr-20 18:57 33.984992 -117.636329 128 6998ft 192kts
02-Apr-20 18:59 33.952460 -117.584595 128 6998ft 193kts
02-Apr-20 19:00 33.919806 -117.532952 128 6997ft 194kts
02-Apr-20 19:01 33.879063 -117.493487 153 6995ft 191kts
02-Apr-20 19:02 33.834069 -117.458912 147 6990ft 191kts
02-Apr-20 19:03 33.790106 -117.422396 146 6987ft 192kts
02-Apr-20 19:04 33.746231 -117.385729 146 6985ft 192kts
02-Apr-20 19:05 33.702169 -117.348919 146 6983ft 192kts
02-Apr-20 19:06 33.658242 -117.312261 147 6983ft 191kts
02-Apr-20 19:07 33.614569 -117.275887 147 6986ft 190kts
02-Apr-20 19:08 33.570932 -117.239623 147 6968ft 190kts
02-Apr-20 19:09 33.527843 -117.203818 148 6991ft 186kts
02-Apr-20 19:10 33.485227 -117.168451 147 6995ft 186kts
02-Apr-20 19:11 33.440228 -117.136453 151 6589ft 193kts
02-Apr-20 19:12 33.393647 -117.103332 151 5793ft 194kts
02-Apr-20 19:13 33.347991 -117.070620 151 4978ft 182kts
02-Apr-20 19:13 33.313818 -117.045949 151 4326ft 161kts
02-Apr-20 19:15 33.273769 -117.016783 151 4026ft 141kts
02-Apr-20 19:16 33.242010 -116.993766 151 4085ft 110kts
02-Apr-20 19:16 33.220437 -116.977752 151 4073ft 116kts
02-Apr-20 19:18 33.185855 -116.956677 195 3879ft 123kts
02-Apr-20 19:19 33.174515 -116.992292 255 3883ft 120kts
02-Apr-20 19:19 33.169770 -117.023796 254 3918ft 118kts
02-Apr-20 19:20 33.162880 -117.064376 256 3142ft 110kts
02-Apr-20 19:22 33.156846 -117.101537 256 3120ft 93kts
02-Apr-20 19:22 33.152782 -117.127750 258 2956ft 99kts
02-Apr-20 19:23 33.147586 -117.161213 256 2450ft 105kts
02-Apr-20 19:24 33.141811 -117.196679 255 1747ft 109kts
02-Apr-20 19:25 33.136674 -117.227587 256 1165ft 88kts
02-Apr-20 19:26 33.132262 -117.255280 256 668ft 83kts
02-Apr-20 19:27 33.128268 -117.279734 261 335ft 48kts
02-Apr-20 19:28 33.127044 -117.282956 154 335ft 0kts
02-Apr-20 19:29 33.127111 -117.282039 78 335ft 8kts
02-Apr-20 19:30 33.126805 -117.279663 81 335ft 0kts
02-Apr-20 19:31 33.126805 -117.279663 81 335ft 0kts
02-Apr-20 19:32 33.126805 -117.279663 81 335ft 0kts
02-Apr-20 19:33 33.126805 -117.279663 81 335ft 0kts
02-Apr-20 19:34 33.126805 -117.279663 81 335ft 0kts
02-Apr-20 19:35 33.126805 -117.279663 81 335ft 0kts
02-Apr-20 19:36 33.126805 -117.279663 81 335ft 0kts

Navigation Log

Ident Type
Flight plan parsing failed, navigation log unavailable